Time;durP1;ratioP1;P1;durP2;ratioP2;P2;SDS_P1;SDS_P2;PMS_P1;PMS_P2;Temp;Humidity;BMP_temperature;BMP_pressure;BME280_temperature;BME280_humidity;BME280_pressure;Samples;Min_cycle;Max_cycle;Signal;HPM_P1;HPM_P2
2022/07/25 00:00:02;;;;;;;;;;;;;;;22.90;71.37;101085.01;1772091;81;25818;-56
2022/07/25 00:02:32;;;;;;;;;;;;;;;22.90;71.08;101077.32;1737251;82;25757;-56
2022/07/25 00:04:58;;;;;;;;;;;;;;;22.91;71.00;101077.61;1737331;81;25705;-56
2022/07/25 00:07:25;;;;;;;;;;;;;;;22.88;70.92;101076.68;1763626;81;25822;-56
2022/07/25 00:09:52;;;;;;;;;;;;;;;22.87;70.84;101078.56;1768885;81;25683;-56
2022/07/25 00:12:19;;;;;;;;;;;;;;;22.88;70.61;101079.42;1743203;82;27488;-56
2022/07/25 00:14:46;;;;;;;;;;;;;;;22.87;70.53;101083.22;1743662;82;25750;-56
2022/07/25 00:17:13;;;;;;;;;;;;;;;22.81;70.20;101081.64;1743236;82;25713;-56
2022/07/25 00:19:40;;;;;;;;;;;;;;;22.75;70.64;101082.46;1743369;82;25774;-56
2022/07/25 00:22:07;;;;;;;;;;;;;;;22.71;70.97;101081.72;1743452;82;25747;-56
2022/07/25 00:24:33;;;;;;;;;;;;;;;22.66;70.85;101088.70;1745744;81;27607;-56
2022/07/25 00:27:01;;;;;;;;;;;;;;;22.62;70.42;101090.16;1772761;80;25765;-55
2022/07/25 00:29:28;;;;;;;;;;;;;;;22.60;71.37;101090.87;1774191;81;25388;-56
2022/07/25 00:31:55;;;;;;;;;;;;;;;22.51;71.47;101095.73;1774079;81;26641;-55
2022/07/25 00:34:21;;;;;;;;;;;;;;;22.45;70.78;101097.94;1774252;81;25650;-56
2022/07/25 00:36:48;;;;;;;;;;;;;;;22.42;70.73;101095.60;1773938;81;27550;-56
2022/07/25 00:39:14;;;;;;;;;;;;;;;22.38;70.31;101097.02;1773734;81;25748;-57
2022/07/25 00:41:41;;;;;;;;;;;;;;;22.27;69.95;101097.64;1774042;80;25752;-56
2022/07/25 00:44:07;;;;;;;;;;;;;;;22.18;69.72;101103.31;1774030;80;25763;-57
2022/07/25 00:46:36;;;;;;;;;;;;;;;22.11;69.88;101094.20;1767179;80;25745;-55
2022/07/25 00:49:03;;;;;;;;;;;;;;;22.04;69.48;101108.41;1753666;81;27669;-56
2022/07/25 00:51:30;;;;;;;;;;;;;;;22.02;69.62;101110.48;1741941;81;25471;-57
2022/07/25 00:53:57;;;;;;;;;;;;;;;22.02;69.50;101118.71;1774114;81;25427;-55
2022/07/25 00:56:23;;;;;;;;;;;;;;;21.99;68.97;101112.29;1774089;81;25782;-58
2022/07/25 00:58:50;;;;;;;;;;;;;;;21.99;69.06;101112.29;1774431;81;25764;-56
2022/07/25 01:01:17;;;;;;;;;;;;;;;22.02;69.31;101118.20;1752725;81;27489;-55
2022/07/25 01:03:44;;;;;;;;;;;;;;;22.02;69.10;101114.09;1737373;82;26306;-56
2022/07/25 01:06:11;;;;;;;;;;;;;;;21.97;68.50;101112.47;1737344;82;25697;-55
2022/07/25 01:08:38;;;;;;;;;;;;;;;21.94;68.76;101109.30;1772466;81;25851;-56
2022/07/25 01:11:05;;;;;;;;;;;;;;;21.89;68.44;101109.41;1774131;81;25728;-55
2022/07/25 01:13:33;;;;;;;;;;;;;;;21.87;68.47;101113.40;1772112;81;28743;-56
2022/07/25 01:16:00;;;;;;;;;;;;;;;21.80;68.41;101111.13;1741947;81;26150;-55
2022/07/25 01:18:26;;;;;;;;;;;;;;;21.78;68.36;101108.59;1741826;81;25763;-55
2022/07/25 01:20:52;;;;;;;;;;;;;;;21.72;68.74;101103.41;1741982;81;26628;-62
2022/07/25 01:23:19;;;;;;;;;;;;;;;21.66;68.43;101109.70;1741819;81;25482;-61
2022/07/25 01:25:46;;;;;;;;;;;;;;;21.61;68.49;101108.61;1742137;81;28274;-61
2022/07/25 01:28:13;;;;;;;;;;;;;;;21.57;68.59;101106.77;1742401;81;25502;-61
2022/07/25 01:30:40;;;;;;;;;;;;;;;21.57;68.30;101110.88;1774088;80;25683;-61
2022/07/25 01:33:06;;;;;;;;;;;;;;;21.57;68.23;101119.09;1774037;81;25828;-61
2022/07/25 01:35:32;;;;;;;;;;;;;;;21.59;68.07;101115.66;1774415;81;25983;-61
2022/07/25 01:37:59;;;;;;;;;;;;;;;21.61;67.81;101123.12;1774224;80;27476;-62
2022/07/25 01:40:26;;;;;;;;;;;;;;;21.61;67.61;101114.91;1774485;80;25784;-61
2022/07/25 01:42:52;;;;;;;;;;;;;;;21.63;67.39;101116.94;1773706;81;25730;-60
2022/07/25 01:45:19;;;;;;;;;;;;;;;21.63;67.01;101120.21;1769938;80;25685;-61
2022/07/25 01:47:45;;;;;;;;;;;;;;;21.62;66.90;101123.98;1737188;82;25674;-61
2022/07/25 01:50:12;;;;;;;;;;;;;;;21.61;66.74;101121.76;1737318;82;27458;-61
2022/07/25 01:52:39;;;;;;;;;;;;;;;21.57;66.53;101126.76;1737296;82;25887;-61
2022/07/25 01:55:07;;;;;;;;;;;;;;;21.56;66.62;101128.34;1737461;82;25719;-61
2022/07/25 01:57:34;;;;;;;;;;;;;;;21.51;66.51;101133.58;1737454;82;26499;-61
2022/07/25 02:00:00;;;;;;;;;;;;;;;21.49;66.43;101135.13;1773179;81;25676;-60
2022/07/25 02:02:27;;;;;;;;;;;;;;;21.50;66.48;101131.34;1774097;80;28411;-61
2022/07/25 02:04:54;;;;;;;;;;;;;;;21.52;66.66;101137.98;1774024;80;27276;-62
2022/07/25 02:07:20;;;;;;;;;;;;;;;21.53;66.59;101139.17;1774128;80;25478;-61
2022/07/25 02:09:47;;;;;;;;;;;;;;;21.55;66.57;101143.93;1774233;81;26707;-61
2022/07/25 02:12:13;;;;;;;;;;;;;;;21.55;66.50;101141.70;1774170;81;25725;-61
2022/07/25 02:14:40;;;;;;;;;;;;;;;21.55;66.25;101137.59;1748304;81;27462;-61
2022/07/25 02:17:06;;;;;;;;;;;;;;;21.56;66.13;101144.77;1774126;80;25716;-61
2022/07/25 02:19:33;;;;;;;;;;;;;;;21.55;65.86;101146.67;1774271;80;25795;-61
2022/07/25 02:22:00;;;;;;;;;;;;;;;21.52;65.78;101142.95;1774163;81;25822;-62
2022/07/25 02:24:26;;;;;;;;;;;;;;;21.51;65.70;101150.00;1774648;81;25611;-60
2022/07/25 02:26:53;;;;;;;;;;;;;;;21.45;65.39;101148.91;1774302;81;27559;-62
2022/07/25 02:29:19;;;;;;;;;;;;;;;21.43;65.36;101151.82;1757423;80;25480;-61
2022/07/25 02:31:46;;;;;;;;;;;;;;;21.41;64.78;101153.07;1749679;81;25814;-61
2022/07/25 02:34:12;;;;;;;;;;;;;;;21.33;64.90;101149.98;1749987;82;25804;-61
2022/07/25 02:36:39;;;;;;;;;;;;;;;21.28;64.87;101153.81;1750291;81;25752;-61
2022/07/25 02:39:05;;;;;;;;;;;;;;;21.23;65.13;101153.58;1750157;81;27491;-61
2022/07/25 02:41:32;;;;;;;;;;;;;;;21.19;65.03;101153.63;1749871;81;25962;-61
2022/07/25 02:43:58;;;;;;;;;;;;;;;21.11;64.62;101154.10;1770339;80;25653;-61
2022/07/25 02:46:25;;;;;;;;;;;;;;;21.04;64.53;101159.18;1763279;80;25857;-61
2022/07/25 02:48:52;;;;;;;;;;;;;;;21.00;64.59;101163.36;1745614;82;25753;-62
2022/07/25 02:51:18;;;;;;;;;;;;;;;20.95;64.41;101167.52;1745638;82;27526;-61
2022/07/25 02:53:45;;;;;;;;;;;;;;;20.93;64.36;101160.56;1745667;82;25712;-62
2022/07/25 02:56:11;;;;;;;;;;;;;;;20.91;64.36;101166.23;1745544;82;25783;-62
2022/07/25 02:58:38;;;;;;;;;;;;;;;20.91;64.36;101165.37;1765053;80;26548;-61
2022/07/25 03:01:05;;;;;;;;;;;;;;;20.89;63.99;101172.41;1782392;80;25705;-61
2022/07/25 03:03:32;;;;;;;;;;;;;;;20.85;64.09;101176.56;1782435;80;28399;-61
2022/07/25 03:05:58;;;;;;;;;;;;;;;20.83;63.93;101173.20;1782490;80;25886;-61
2022/07/25 03:08:25;;;;;;;;;;;;;;;20.78;63.92;101172.92;1782335;80;25456;-61
2022/07/25 03:10:52;;;;;;;;;;;;;;;20.76;63.90;101172.26;1782454;80;25801;-61
2022/07/25 03:13:19;;;;;;;;;;;;;;;20.75;63.88;101176.06;1782436;80;25688;-61
2022/07/25 03:15:46;;;;;;;;;;;;;;;20.73;63.83;101179.47;1782504;80;27480;-61
2022/07/25 03:18:12;;;;;;;;;;;;;;;20.71;63.72;101191.94;1782472;80;25734;-61
2022/07/25 03:20:39;;;;;;;;;;;;;;;20.68;63.84;101188.75;1782566;80;25462;-61
2022/07/25 03:23:06;;;;;;;;;;;;;;;20.66;63.70;101190.86;1782554;80;25831;-61
2022/07/25 03:25:32;;;;;;;;;;;;;;;20.63;63.65;101190.70;1782462;80;25687;-61
2022/07/25 03:27:59;;;;;;;;;;;;;;;20.60;63.48;101190.56;1781883;80;27638;-61
2022/07/25 03:30:26;;;;;;;;;;;;;;;20.60;63.64;101194.67;1780056;80;25794;-61
2022/07/25 03:32:53;;;;;;;;;;;;;;;20.55;63.76;101197.65;1782565;80;25708;-61
2022/07/25 03:35:20;;;;;;;;;;;;;;;20.50;63.58;101202.32;1782836;80;26608;-61
2022/07/25 03:37:46;;;;;;;;;;;;;;;20.49;63.75;101199.25;1765383;80;25721;-61
2022/07/25 03:40:14;;;;;;;;;;;;;;;20.47;63.73;101196.72;1749866;81;28447;-62
2022/07/25 03:42:40;;;;;;;;;;;;;;;20.45;63.47;101191.13;1749802;81;25827;-62
2022/07/25 03:45:09;;;;;;;;;;;;;;;20.30;63.26;101196.61;1749958;82;25731;-62
2022/07/25 03:47:35;;;;;;;;;;;;;;;20.25;63.68;101192.25;1749872;82;25822;-62
2022/07/25 03:50:03;;;;;;;;;;;;;;;20.21;63.57;101196.39;1749884;82;25690;-62
2022/07/25 03:52:30;;;;;;;;;;;;;;;20.19;63.76;101192.49;1765010;80;28124;-62
2022/07/25 03:54:57;;;;;;;;;;;;;;;20.22;63.90;101196.19;1782299;80;25735;-63
2022/07/25 03:57:23;;;;;;;;;;;;;;;20.27;64.05;101196.48;1782470;80;26328;-61
2022/07/25 03:59:49;;;;;;;;;;;;;;;20.36;64.10;101192.28;1761672;80;25795;-63
2022/07/25 04:02:16;;;;;;;;;;;;;;;20.36;64.02;101199.11;1745392;80;26373;-60
2022/07/25 04:04:43;;;;;;;;;;;;;;;20.33;63.84;101197.08;1745573;82;27471;-61
2022/07/25 04:07:10;;;;;;;;;;;;;;;20.33;63.92;101197.08;1745494;82;25947;-62
2022/07/25 04:09:42;;;;;;;;;;;;;;;20.37;63.77;101200.80;1706382;79;25638;-62
2022/07/25 04:12:09;;;;;;;;;;;;;;;20.38;63.69;101200.61;1727882;82;25961;-62
2022/07/25 04:14:36;;;;;;;;;;;;;;;20.39;63.59;101204.20;1727738;83;26199;-62
2022/07/25 04:17:03;;;;;;;;;;;;;;;20.38;63.39;101207.44;1727387;83;27496;-62
2022/07/25 04:19:30;;;;;;;;;;;;;;;20.35;62.89;101206.97;1727455;83;25713;-61
2022/07/25 04:21:56;;;;;;;;;;;;;;;20.32;63.03;101206.84;1727402;83;25706;-61
2022/07/25 04:24:23;;;;;;;;;;;;;;;20.32;63.48;101206.30;1727246;82;25818;-62
2022/07/25 04:26:50;;;;;;;;;;;;;;;20.30;63.48;101205.67;1727516;83;25733;-62
2022/07/25 04:29:16;;;;;;;;;;;;;;;20.25;63.56;101210.01;1727552;82;27500;-62
2022/07/25 04:31:43;;;;;;;;;;;;;;;20.22;63.33;101212.58;1727180;81;26313;-61
2022/07/25 04:34:09;;;;;;;;;;;;;;;20.20;62.97;101219.27;1727417;83;25773;-61
2022/07/25 04:36:36;;;;;;;;;;;;;;;20.21;63.74;101213.64;1727446;81;25813;-61
2022/07/25 04:39:03;;;;;;;;;;;;;;;20.18;63.45;101218.11;1727354;83;25461;-60
2022/07/25 04:41:30;;;;;;;;;;;;;;;20.21;62.99;101208.68;1727408;83;27483;-61
2022/07/25 04:43:56;;;;;;;;;;;;;;;20.22;62.96;101216.67;1727499;83;26034;-61
2022/07/25 04:46:23;;;;;;;;;;;;;;;20.22;63.05;101212.58;1724577;83;25506;-61
2022/07/25 04:48:50;;;;;;;;;;;;;;;20.25;62.93;101212.20;1721894;83;25679;-61
2022/07/25 04:51:17;;;;;;;;;;;;;;;20.29;62.38;101214.04;1721743;83;25711;-61
2022/07/25 04:53:45;;;;;;;;;;;;;;;20.29;62.54;101209.44;1721751;83;27845;-61
2022/07/25 04:56:11;;;;;;;;;;;;;;;20.32;62.38;101209.04;1721764;83;25912;-61
2022/07/25 04:58:38;;;;;;;;;;;;;;;20.34;61.94;101210.23;1723889;83;25835;-60
2022/07/25 05:01:06;;;;;;;;;;;;;;;20.35;62.17;101210.53;1727790;82;25762;-61
2022/07/25 05:03:33;;;;;;;;;;;;;;;20.41;62.15;101210.30;1727657;83;25712;-60
2022/07/25 05:05:59;;;;;;;;;;;;;;;20.46;62.06;101214.69;1711890;83;27714;-61
2022/07/25 05:08:31;;;;;;;;;;;;;;;20.52;62.11;101210.35;1689945;84;44088;-61
2022/07/25 05:10:58;;;;;;;;;;;;;;;20.56;61.68;101198.84;1684130;84;25785;-60
2022/07/25 05:13:25;;;;;;;;;;;;;;;20.59;61.14;101201.70;1684334;84;25803;-61
2022/07/25 05:15:51;;;;;;;;;;;;;;;20.61;60.82;101196.91;1683983;85;25785;-61
2022/07/25 05:18:18;;;;;;;;;;;;;;;20.65;60.33;101200.92;1684428;84;27561;-61
2022/07/25 05:20:45;;;;;;;;;;;;;;;20.67;60.29;101196.63;1701002;83;25516;-61
2022/07/25 05:23:12;;;;;;;;;;;;;;;20.71;59.93;101205.61;1721038;83;25724;-61
2022/07/25 05:25:39;;;;;;;;;;;;;;;20.74;59.85;101202.53;1721024;83;26024;-61
2022/07/25 05:28:05;;;;;;;;;;;;;;;20.79;59.89;101203.32;1720697;82;25962;-61
2022/07/25 05:30:32;;;;;;;;;;;;;;;20.84;59.80;101198.64;1720657;83;28323;-61
2022/07/25 05:32:58;;;;;;;;;;;;;;;20.88;59.60;101200.80;1721059;83;25775;-61
2022/07/25 05:35:25;;;;;;;;;;;;;;;20.89;59.22;101197.02;1720696;82;25724;-61
2022/07/25 05:37:52;;;;;;;;;;;;;;;20.90;59.08;101195.98;1721132;83;25947;-61
2022/07/25 05:40:18;;;;;;;;;;;;;;;20.92;58.88;101202.11;1721228;83;25713;-61
2022/07/25 05:42:45;;;;;;;;;;;;;;;20.95;58.77;101201.70;1721013;82;27498;-61
2022/07/25 05:45:12;;;;;;;;;;;;;;;20.99;58.69;101197.22;1720739;83;25749;-61
2022/07/25 05:47:38;;;;;;;;;;;;;;;21.02;58.35;101199.05;1712758;83;25787;-61
2022/07/25 05:50:07;;;;;;;;;;;;;;;21.03;58.25;101193.03;1714185;83;26165;-61
2022/07/25 05:52:34;;;;;;;;;;;;;;;21.04;57.86;101195.59;1721203;83;25766;-61
2022/07/25 05:55:00;;;;;;;;;;;;;;;21.05;57.95;101188.23;1717105;82;28317;-61
2022/07/25 05:57:27;;;;;;;;;;;;;;;21.05;57.89;101189.59;1720964;83;25531;-61
2022/07/25 05:59:53;;;;;;;;;;;;;;;21.10;57.79;101185.77;1720982;83;25778;-60
2022/07/25 06:02:20;;;;;;;;;;;;;;;21.12;58.17;101185.02;1715215;83;25809;-60
2022/07/25 06:04:46;;;;;;;;;;;;;;;21.19;56.40;101175.02;1721076;82;25752;-61
2022/07/25 06:07:13;;;;;;;;;;;;;;;21.22;57.12;101177.34;1721075;83;27472;-60
2022/07/25 06:09:40;;;;;;;;;;;;;;;21.23;56.99;101176.30;1727625;81;25912;-61
2022/07/25 06:12:07;;;;;;;;;;;;;;;21.27;56.90;101180.84;1724316;83;25765;-61
2022/07/25 06:14:33;;;;;;;;;;;;;;;21.28;56.55;101172.14;1724529;83;25894;-61
2022/07/25 06:17:00;;;;;;;;;;;;;;;21.30;56.68;101180.47;1728413;82;25640;-61
2022/07/25 06:19:26;;;;;;;;;;;;;;;21.35;56.96;101177.14;1727465;83;27485;-61
2022/07/25 06:21:53;;;;;;;;;;;;;;;21.38;56.83;101182.23;1723289;82;25774;-60
2022/07/25 06:24:20;;;;;;;;;;;;;;;21.40;56.64;101182.84;1724065;82;25849;-61
2022/07/25 06:26:46;;;;;;;;;;;;;;;21.43;56.18;101172.89;1731007;81;26648;-60
2022/07/25 06:29:13;;;;;;;;;;;;;;;21.45;56.35;101173.54;1729105;82;25800;-61
2022/07/25 06:31:39;;;;;;;;;;;;;;;21.49;56.25;101172.61;1730995;81;28297;-60
2022/07/25 06:34:06;;;;;;;;;;;;;;;21.51;56.11;101170.53;1724602;82;25821;-61
2022/07/25 06:36:32;;;;;;;;;;;;;;;21.53;56.28;101167.91;1727720;82;25898;-60
2022/07/25 06:38:59;;;;;;;;;;;;;;;21.60;56.98;101169.88;1729339;82;25790;-61
2022/07/25 06:41:26;;;;;;;;;;;;;;;21.71;54.89;101170.16;1727632;83;26156;-60
2022/07/25 06:43:52;;;;;;;;;;;;;;;21.82;54.47;101170.65;1724411;82;27417;-60
2022/07/25 06:46:19;;;;;;;;;;;;;;;21.88;54.65;101170.70;1729282;82;25848;-60
2022/07/25 06:48:46;;;;;;;;;;;;;;;21.94;54.49;101170.92;1724358;83;25788;-60
2022/07/25 06:51:12;;;;;;;;;;;;;;;22.01;53.72;101169.06;1728091;83;25779;-60
2022/07/25 06:53:39;;;;;;;;;;;;;;;22.07;52.98;101165.53;1711505;83;25749;-61
2022/07/25 06:56:07;;;;;;;;;;;;;;;22.14;52.56;101159.55;1700454;84;27566;-61
2022/07/25 06:58:33;;;;;;;;;;;;;;;22.19;52.63;101161.14;1700312;84;26178;-60
2022/07/25 07:01:00;;;;;;;;;;;;;;;22.22;52.33;101164.03;1712245;83;25760;-60
2022/07/25 07:03:26;;;;;;;;;;;;;;;22.28;52.48;101165.94;1739674;81;25914;-60
2022/07/25 07:05:53;;;;;;;;;;;;;;;22.40;52.33;101161.28;1761528;81;25692;-60
2022/07/25 07:08:19;;;;;;;;;;;;;;;22.49;52.09;101157.30;1741492;80;28442;-60
2022/07/25 07:10:46;;;;;;;;;;;;;;;22.60;50.77;101153.94;1714986;82;25861;-61
2022/07/25 07:13:16;;;;;;;;;;;;;;;22.72;50.90;101159.69;1731754;82;25723;-61
2022/07/25 07:15:45;;;;;;;;;;;;;;;22.82;50.56;101157.36;1719115;81;25781;-60
2022/07/25 07:18:12;;;;;;;;;;;;;;;22.91;50.06;101159.91;1715655;82;25947;-62
2022/07/25 07:20:39;;;;;;;;;;;;;;;22.98;49.99;101162.16;1718443;82;27492;-60
2022/07/25 07:23:06;;;;;;;;;;;;;;;23.05;50.07;101158.88;1712972;82;25788;-60
2022/07/25 07:25:33;;;;;;;;;;;;;;;23.09;50.26;101162.87;1718111;82;26942;-61
2022/07/25 07:27:59;;;;;;;;;;;;;;;23.21;50.28;101158.17;1714055;82;25918;-61
2022/07/25 07:30:27;;;;;;;;;;;;;;;23.24;50.00;101155.84;1713239;82;25731;-60
2022/07/25 07:32:53;;;;;;;;;;;;;;;23.33;49.68;101159.75;1715378;82;27515;-60
2022/07/25 07:35:19;;;;;;;;;;;;;;;23.36;47.93;101154.67;1718417;83;25779;-61
2022/07/25 07:37:46;;;;;;;;;;;;;;;23.44;48.52;101154.45;1718984;82;25788;-61
2022/07/25 07:40:14;;;;;;;;;;;;;;;23.54;48.47;101158.67;1722785;82;25795;-60
2022/07/25 07:42:43;;;;;;;;;;;;;;;23.66;48.59;101157.52;1751211;82;25784;-60
2022/07/25 07:45:15;;;;;;;;;;;;;;;23.83;49.00;101159.26;1731235;82;27748;-61
2022/07/25 07:47:42;;;;;;;;;;;;;;;23.97;46.98;101156.84;1717030;83;25648;-60
2022/07/25 07:50:10;;;;;;;;;;;;;;;24.00;47.23;101156.38;1721295;83;25800;-61
2022/07/25 07:52:37;;;;;;;;;;;;;;;24.10;46.82;101159.20;1720313;83;25805;-61
2022/07/25 07:57:50;;;;;;;;;;;;;;;24.31;46.14;101150.67;1718689;82;27473;-60
2022/07/25 08:00:18;;;;;;;;;;;;;;;24.51;44.91;101152.48;1719653;82;25721;-61
2022/07/25 08:02:47;;;;;;;;;;;;;;;24.63;44.26;101151.25;1713024;83;25814;-60
2022/07/25 08:05:23;;;;;;;;;;;;;;;24.72;44.52;101151.33;1716317;83;26588;-61
2022/07/25 08:07:50;;;;;;;;;;;;;;;24.79;44.90;101153.50;1720010;83;25719;-61
2022/07/25 08:10:22;;;;;;;;;;;;;;;24.82;42.84;101148.94;1733793;81;27494;-61
2022/07/25 08:12:49;;;;;;;;;;;;;;;24.81;43.84;101147.77;1733918;82;25756;-60
2022/07/25 08:15:17;;;;;;;;;;;;;;;24.96;43.48;101151.06;1746224;81;25903;-60
2022/07/25 08:17:44;;;;;;;;;;;;;;;25.02;42.06;101145.17;1748533;82;26383;-60
2022/07/25 08:20:12;;;;;;;;;;;;;;;25.06;40.75;101147.80;1748187;81;25971;-60
2022/07/25 08:22:41;;;;;;;;;;;;;;;25.08;40.92;101148.94;1732381;82;27470;-60
2022/07/25 08:25:10;;;;;;;;;;;;;;;25.17;41.20;101144.84;1735818;81;25710;-60
2022/07/25 08:27:37;;;;;;;;;;;;;;;25.29;40.85;101137.55;1735518;81;26759;-60
2022/07/25 08:30:08;;;;;;;;;;;;;;;25.33;39.83;101143.99;1728222;81;25804;-60
2022/07/25 08:32:46;;;;;;;;;;;;;;;25.39;39.70;101136.20;1734603;81;25859;-61
2022/07/25 08:35:13;;;;;;;;;;;;;;;25.63;40.22;101135.34;1746928;82;27635;-61
2022/07/25 08:37:39;;;;;;;;;;;;;;;25.89;40.64;101134.73;1748004;82;25816;-61
2022/07/25 08:40:07;;;;;;;;;;;;;;;26.09;39.06;101129.00;1737160;82;25753;-61
2022/07/25 08:42:34;;;;;;;;;;;;;;;26.28;38.33;101127.59;1728022;82;26620;-61
2022/07/25 08:45:03;;;;;;;;;;;;;;;26.44;37.08;101129.42;1736940;82;25704;-61
2022/07/25 08:47:31;;;;;;;;;;;;;;;26.54;37.66;101129.16;1725395;82;27500;-60
2022/07/25 08:49:58;;;;;;;;;;;;;;;26.77;36.44;101117.91;1744504;81;25796;-61
2022/07/25 08:52:25;;;;;;;;;;;;;;;26.94;36.32;101123.59;1737878;81;25775;-61
2022/07/25 08:54:53;;;;;;;;;;;;;;;26.90;36.82;101127.06;1730287;81;25774;-61
2022/07/25 08:57:19;;;;;;;;;;;;;;;26.82;35.97;101122.19;1732691;81;25772;-61
2022/07/25 08:59:45;;;;;;;;;;;;;;;26.89;37.16;101115.72;1735014;81;28396;-61
2022/07/25 09:02:14;;;;;;;;;;;;;;;27.04;37.23;101107.81;1736203;81;25764;-61
2022/07/25 09:04:42;;;;;;;;;;;;;;;27.14;35.91;101110.82;1731103;82;25671;-61
2022/07/25 09:07:09;;;;;;;;;;;;;;;27.32;34.85;101113.17;1729954;81;25824;-61
2022/07/25 09:09:37;;;;;;;;;;;;;;;27.46;35.30;101110.52;1736346;82;25642;-61
2022/07/25 09:12:06;;;;;;;;;;;;;;;27.74;34.53;101095.63;1733243;81;28555;-62
2022/07/25 09:14:43;;;;;;;;;;;;;;;27.91;34.91;101102.07;1739268;81;25814;-62
2022/07/25 09:17:09;;;;;;;;;;;;;;;28.00;34.07;101101.16;1722573;83;25752;-61
2022/07/25 09:19:36;;;;;;;;;;;;;;;28.11;34.96;101101.67;1747330;81;25816;-61
2022/07/25 09:22:07;;;;;;;;;;;;;;;28.45;33.06;101098.73;1752092;81;25964;-61
2022/07/25 09:24:34;;;;;;;;;;;;;;;28.40;34.01;101100.30;1727485;83;27577;-61
2022/07/25 09:27:04;;;;;;;;;;;;;;;28.51;33.54;101107.41;1727488;82;25830;-61
2022/07/25 09:29:32;;;;;;;;;;;;;;;28.80;33.26;101102.69;1733089;81;25707;-62
2022/07/25 09:32:00;;;;;;;;;;;;;;;29.15;32.21;101103.54;1736950;81;26390;-62
2022/07/25 09:34:33;;;;;;;;;;;;;;;29.30;32.18;101101.00;1735740;81;25768;-61
2022/07/25 09:37:02;;;;;;;;;;;;;;;29.66;33.24;101102.92;1735600;81;28536;-61
2022/07/25 09:39:43;;;;;;;;;;;;;;;29.62;31.11;101099.00;1729889;81;25810;-61
2022/07/25 09:42:21;;;;;;;;;;;;;;;29.81;30.81;101095.89;1729457;81;25695;-61
2022/07/25 09:45:13;;;;;;;;;;;;;;;30.08;30.92;101087.66;1727450;82;25843;-60
2022/07/25 09:47:51;;;;;;;;;;;;;;;30.44;30.69;101082.50;1742246;81;25816;-62
2022/07/25 09:50:20;;;;;;;;;;;;;;;30.31;29.87;101095.39;1726997;81;27534;-61
2022/07/25 09:52:47;;;;;;;;;;;;;;;30.25;29.94;101093.67;1727017;82;25978;-62
2022/07/25 09:55:15;;;;;;;;;;;;;;;30.63;28.44;101079.38;1720387;82;25832;-61
2022/07/25 09:57:43;;;;;;;;;;;;;;;30.64;29.34;101088.52;1727390;82;25908;-62
2022/07/25 10:00:13;;;;;;;;;;;;;;;30.86;29.86;101085.13;1730170;81;25751;-61
2022/07/25 10:02:55;;;;;;;;;;;;;;;30.64;28.64;101085.21;1728000;83;27637;-61
2022/07/25 10:05:30;;;;;;;;;;;;;;;30.48;28.10;101084.19;1751130;81;25703;-62
2022/07/25 10:07:58;;;;;;;;;;;;;;;30.74;28.13;101079.75;1709190;81;25704;-61
2022/07/25 10:10:30;;;;;;;;;;;;;;;30.87;27.93;101073.45;1721618;83;25875;-62
2022/07/25 10:13:09;;;;;;;;;;;;;;;30.62;29.17;101079.08;1734973;82;25796;-62
2022/07/25 10:15:49;;;;;;;;;;;;;;;30.67;28.88;101076.90;1747901;82;27489;-62
2022/07/25 10:18:18;;;;;;;;;;;;;;;31.29;28.39;101076.81;1728412;81;25709;-60
2022/07/25 10:20:55;;;;;;;;;;;;;;;32.05;27.52;101075.25;1727255;83;25729;-62
2022/07/25 10:23:27;;;;;;;;;;;;;;;31.81;27.86;101071.57;1637641;86;25865;-63
2022/07/25 10:26:18;;;;;;;;;;;;;;;31.78;27.58;101067.93;1693780;83;25900;-61
2022/07/25 10:28:47;;;;;;;;;;;;;;;32.44;27.43;101065.08;1694466;83;27532;-62
2022/07/25 10:31:17;;;;;;;;;;;;;;;33.20;27.11;101066.16;1702501;83;25713;-63
2022/07/25 10:33:50;;;;;;;;;;;;;;;33.59;25.01;101065.25;1707419;83;25738;-63
2022/07/25 10:36:17;;;;;;;;;;;;;;;34.22;24.22;101046.51;1698620;83;26451;-62
2022/07/25 10:38:47;;;;;;;;;;;;;;;33.90;23.89;101060.39;1701619;83;25772;-62
2022/07/25 10:41:15;;;;;;;;;;;;;;;34.00;24.62;101051.97;1687230;85;28263;-62
2022/07/25 10:43:45;;;;;;;;;;;;;;;33.78;25.10;101057.06;1687422;85;25763;-62
2022/07/25 10:46:22;;;;;;;;;;;;;;;33.33;25.32;101050.00;1687272;84;25802;-63
2022/07/25 10:49:00;;;;;;;;;;;;;;;33.27;25.75;101045.50;1697955;83;26490;-62
2022/07/25 10:51:30;;;;;;;;;;;;;;;33.78;24.80;101047.30;1708330;83;25753;-63
2022/07/25 10:53:57;;;;;;;;;;;;;;;34.54;23.69;101038.77;1668064;85;27700;-62
2022/07/25 10:56:26;;;;;;;;;;;;;;;35.12;22.89;101035.74;1673764;85;25722;-62
2022/07/25 10:58:58;;;;;;;;;;;;;;;34.72;23.09;101028.84;1695138;84;26451;-63
2022/07/25 11:01:27;;;;;;;;;;;;;;;34.17;23.39;101020.86;1681521;83;25954;-63
2022/07/25 11:03:56;;;;;;;;;;;;;;;34.44;23.86;101029.92;1690470;83;25797;-62
2022/07/25 11:06:34;;;;;;;;;;;;;;;34.21;24.17;101021.11;1690823;84;27463;-63
2022/07/25 11:09:03;;;;;;;;;;;;;;;34.38;24.04;101018.50;1701083;83;26462;-63
2022/07/25 11:11:39;;;;;;;;;;;;;;;35.03;23.17;101012.63;1659689;84;25851;-63
2022/07/25 11:14:14;;;;;;;;;;;;;;;35.83;22.30;101007.45;1640926;87;25781;-62
2022/07/25 11:16:43;;;;;;;;;;;;;;;36.56;21.19;101003.01;1642999;86;25727;-62
2022/07/25 11:19:22;;;;;;;;;;;;;;;36.62;20.63;101005.16;1674480;84;27634;-62
2022/07/25 11:21:51;;;;;;;;;;;;;;;35.89;21.16;101006.81;1678056;85;25814;-63
2022/07/25 11:24:18;;;;;;;;;;;;;;;36.03;21.91;101004.97;1678827;83;26018;-63
2022/07/25 11:26:51;;;;;;;;;;;;;;;36.78;20.16;100993.92;1678567;84;25968;-63
2022/07/25 11:29:23;;;;;;;;;;;;;;;37.10;19.48;100998.39;1678808;85;25726;-63
2022/07/25 11:32:02;;;;;;;;;;;;;;;37.20;19.97;100993.14;1678732;85;27432;-63
2022/07/25 11:34:31;;;;;;;;;;;;;;;37.27;19.33;100998.59;1699547;83;26850;-63
2022/07/25 11:37:00;;;;;;;;;;;;;;;37.64;19.31;100995.87;1690032;84;25815;-62
2022/07/25 11:39:29;;;;;;;;;;;;;;;37.96;19.67;100996.87;1704388;84;25878;-62
2022/07/25 11:42:10;;;;;;;;;;;;;;;38.54;19.31;100990.11;1721877;83;25805;-62
2022/07/25 11:44:48;;;;;;;;;;;;;;;39.00;18.11;100989.44;1721383;83;28352;-62
2022/07/25 11:47:29;;;;;;;;;;;;;;;39.40;17.30;100978.19;1695225;83;25794;-61
2022/07/25 11:49:59;;;;;;;;;;;;;;;39.03;17.54;100986.58;1700053;83;25954;-61
2022/07/25 11:52:31;;;;;;;;;;;;;;;39.17;18.28;100978.02;1694152;84;25819;-62
2022/07/25 11:55:04;;;;;;;;;;;;;;;39.60;17.76;100974.50;1694823;84;25774;-62
2022/07/25 11:57:34;;;;;;;;;;;;;;;39.84;17.87;100974.05;1693081;84;27644;-62
2022/07/25 12:00:03;;;;;;;;;;;;;;;40.12;17.98;100965.81;1711828;83;25711;-62
2022/07/25 12:02:36;;;;;;;;;;;;;;;40.58;16.18;100965.66;1696449;83;25660;-62
2022/07/25 12:05:09;;;;;;;;;;;;;;;40.38;17.12;100965.22;1666609;86;25982;-61
2022/07/25 12:07:38;;;;;;;;;;;;;;;40.94;17.07;100955.08;1692030;84;25864;-62
2022/07/25 12:10:08;;;;;;;;;;;;;;;41.61;16.74;100951.97;1717277;82;27646;-62
2022/07/25 12:12:49;;;;;;;;;;;;;;;41.00;15.92;100959.39;1718695;83;25598;-64
2022/07/25 12:15:18;;;;;;;;;;;;;;;40.93;16.38;100940.16;1722563;83;25796;-63
2022/07/25 12:17:46;;;;;;;;;;;;;;;40.77;16.34;100951.18;1696256;83;25864;-63
2022/07/25 12:20:17;;;;;;;;;;;;;;;40.77;16.48;100945.55;1696184;84;26015;-63
2022/07/25 12:22:45;;;;;;;;;;;;;;;40.79;16.23;100943.22;1693099;84;27551;-63
2022/07/25 12:25:12;;;;;;;;;;;;;;;40.76;16.21;100941.06;1661447;85;25774;-63
2022/07/25 12:27:39;;;;;;;;;;;;;;;40.82;16.58;100928.45;1674805;85;25748;-63
2022/07/25 12:30:08;;;;;;;;;;;;;;;41.29;16.54;100929.52;1690898;84;25771;-63
2022/07/25 12:32:36;;;;;;;;;;;;;;;41.60;14.75;100925.50;1704715;83;25723;-63
2022/07/25 12:35:04;;;;;;;;;;;;;;;41.28;16.27;100927.89;1723636;82;28374;-63
2022/07/25 12:37:31;;;;;;;;;;;;;;;41.77;16.47;100929.59;1713726;83;26056;-63
2022/07/25 12:39:58;;;;;;;;;;;;;;;42.29;15.79;100918.14;1701313;82;25791;-63
2022/07/25 12:42:24;;;;;;;;;;;;;;;42.81;14.59;100916.73;1696405;84;25799;-63